Pagina principale
METAR-TAF:

METAR-TAF

Aeroporti :

Memmingen, Germania

latitudine: 47-59-33N, longitudine: 10-14-37E, altezza: 633 m

Osservazione

Il bollettino è stato emesso 37 minuti fa, alle 15:20 UTC
Vento 2 kt da direzioni variabili
Temperature 16°C
Umidità 55%
Pressione 1017 hPa
Visibilità 10 km o più
Poco nuvoloso ad un'altezza di 4300 ft

METAR: EDJA 131520Z VRB02KT 9999 FEW043 16/07 Q1017

Ora: 17:57 (15:57 UTC)

Previsione

Il bollettino è stato emesso 1 ora e 57 minuti fa, alle 14:00 UTC
Previsione valida dal 13 alle 15 UTC al 13 alle 24 UTC
Vento 5 kt da ovest/nord-ovest
Visibilità 10 km o più
Poco nuvoloso ad un'altezza di 4500 ft
Evoluzione graduale
dal 13 alle 16 UTC al 13 alle 18 UTC
Vento 3 kt da direzioni variabili

TAF: EDJA 131400Z 1315/1324 29005KT 9999 FEW045 BECMG 1316/1318 VRB03KT

Osservazioni e previsioni meteorologiche di più di 4000 aeroporti (messaggi METAR e TAF).

Le stazioni disponibili sono rappresentate dai dischi gialli e rossi sulla carta.

Puntare il mouse per vedere il nome della stazione.

Clicca sopra per visualizzare le osservazioni e previsioni meteorologiche.

Per cambiare la mappa : fare clic sui pulsanti verdi con una croce nera per ingrandire, il pulsante verde con un trattino per diminuire, o sulla freccia verde per le mappe adiacenti.


METAR-TAF: